createdAt,value
2022-12-12T00:02:25.291Z,74.51
2022-12-12T00:04:59.403Z,75.00
2022-12-12T00:07:29.148Z,75.05
2022-12-12T00:09:58.867Z,74.98
2022-12-12T00:12:28.679Z,74.78
2022-12-12T00:14:58.485Z,74.78
2022-12-12T00:17:28.524Z,74.99
2022-12-12T00:19:58.323Z,74.44
2022-12-12T00:22:28.325Z,74.42
2022-12-12T00:24:58.339Z,74.93
2022-12-12T00:27:28.076Z,75.14
2022-12-12T00:29:58.110Z,75.14
2022-12-12T00:32:27.829Z,75.04
2022-12-12T00:34:57.871Z,74.60
2022-12-12T00:37:27.660Z,74.73
2022-12-12T00:39:58.275Z,74.42
2022-12-12T00:42:28.453Z,74.51
2022-12-12T00:44:58.586Z,74.53
2022-12-12T00:47:28.381Z,74.50
2022-12-12T00:49:58.418Z,74.38
2022-12-12T00:52:28.174Z,74.63
2022-12-12T00:54:58.430Z,74.63
2022-12-12T00:57:28.001Z,74.44
2022-12-12T00:59:58.680Z,74.45
2022-12-12T01:02:28.650Z,74.39
2022-12-12T01:04:58.331Z,74.43
2022-12-12T01:07:28.661Z,74.80
2022-12-12T01:09:58.457Z,74.67
2022-12-12T01:12:28.270Z,74.55
2022-12-12T01:14:58.071Z,74.91
2022-12-12T01:17:27.866Z,74.80
2022-12-12T01:19:57.906Z,75.69
2022-12-12T01:22:27.455Z,75.81
2022-12-12T01:24:57.208Z,75.84
2022-12-12T01:27:27.478Z,75.30
2022-12-12T01:29:59.144Z,78.25
2022-12-12T01:32:29.931Z,77.22
2022-12-12T01:34:59.909Z,77.16
2022-12-12T01:37:29.661Z,78.46
2022-12-12T01:39:59.372Z,77.66
2022-12-12T01:42:29.889Z,77.34
2022-12-12T01:44:59.689Z,77.42
2022-12-12T01:47:29.401Z,77.56
2022-12-12T01:50:02.198Z,77.70
2022-12-12T01:52:37.989Z,78.13
2022-12-12T01:55:10.503Z,78.26
2022-12-12T01:57:43.562Z,78.67
2022-12-12T02:00:15.727Z,78.57
2022-12-12T02:02:47.215Z,79.09
2022-12-12T02:05:25.121Z,79.34
2022-12-12T02:07:55.756Z,79.20
2022-12-12T02:10:25.515Z,79.00
2022-12-12T02:12:58.665Z,79.47
2022-12-12T02:15:31.794Z,79.77
2022-12-12T02:18:12.362Z,79.88
2022-12-12T02:21:06.667Z,79.74
2022-12-12T02:23:57.511Z,79.51
2022-12-12T02:26:32.445Z,79.81
2022-12-12T02:29:10.405Z,80.38
2022-12-12T02:31:45.749Z,78.97
2022-12-12T02:34:31.545Z,78.57
2022-12-12T02:37:21.036Z,79.63
2022-12-12T02:39:59.840Z,79.25
2022-12-12T02:42:32.600Z,78.99
2022-12-12T02:45:14.589Z,79.26
2022-12-12T02:47:49.965Z,79.28
2022-12-12T02:50:25.279Z,79.28
2022-12-12T02:52:55.010Z,79.22
2022-12-12T02:55:25.031Z,79.30
2022-12-12T02:57:55.892Z,79.96
2022-12-12T03:00:26.169Z,79.46
2022-12-12T03:03:34.628Z,79.87
2022-12-12T03:06:37.753Z,79.55
2022-12-12T03:09:29.452Z,79.87
2022-12-12T03:12:04.888Z,79.97
2022-12-12T03:14:58.037Z,79.74
2022-12-12T03:17:42.454Z,79.74
2022-12-12T03:20:35.879Z,80.06
2022-12-12T03:23:11.685Z,80.80
2022-12-12T03:26:05.627Z,79.84
2022-12-12T03:28:39.586Z,79.97
2022-12-12T03:31:11.826Z,80.09
2022-12-12T03:33:45.260Z,80.61
2022-12-12T03:36:23.760Z,80.77
2022-12-12T03:39:11.764Z,80.95
2022-12-12T03:41:44.643Z,81.80
2022-12-12T03:44:28.987Z,81.54
2022-12-12T03:47:04.696Z,81.51
2022-12-12T03:49:37.476Z,81.58
2022-12-12T03:52:19.140Z,81.29
2022-12-12T03:54:52.231Z,81.29
2022-12-12T03:57:25.032Z,80.69
2022-12-12T04:00:00.499Z,80.94
2022-12-12T04:02:33.065Z,81.11
2022-12-12T04:05:17.672Z,81.03
2022-12-12T04:07:56.438Z,81.75
2022-12-12T04:10:45.977Z,81.71
2022-12-12T04:13:20.392Z,81.65
2022-12-12T04:15:55.886Z,81.35
2022-12-12T04:18:47.729Z,81.35
2022-12-12T04:21:37.977Z,81.23
2022-12-12T04:24:32.856Z,81.53
2022-12-12T04:27:20.815Z,81.33
2022-12-12T04:29:53.636Z,82.27
2022-12-12T04:32:28.877Z,82.87
2022-12-12T04:35:13.261Z,82.83
2022-12-12T04:37:49.004Z,82.76
2022-12-12T04:40:21.484Z,82.17
2022-12-12T04:43:03.500Z,82.10
2022-12-12T04:45:36.352Z,81.84
2022-12-12T04:48:08.991Z,82.34
2022-12-12T04:50:40.282Z,82.38
2022-12-12T04:53:18.586Z,82.38
2022-12-12T04:55:52.331Z,83.03
2022-12-12T04:58:22.235Z,82.64
2022-12-12T05:01:06.750Z,82.09
2022-12-12T05:03:51.536Z,81.99
2022-12-12T05:06:24.665Z,81.31
2022-12-12T05:08:56.051Z,82.26
2022-12-12T05:11:26.284Z,82.36
2022-12-12T05:13:56.073Z,82.70
2022-12-12T05:16:35.218Z,82.07
2022-12-12T05:19:05.341Z,82.20
2022-12-12T05:21:35.068Z,82.27
2022-12-12T05:24:05.060Z,82.41
2022-12-12T05:26:36.337Z,82.29
2022-12-12T05:29:07.682Z,81.90
2022-12-12T05:31:37.901Z,81.64
2022-12-12T05:34:07.650Z,81.64
2022-12-12T05:36:37.423Z,81.80
2022-12-12T05:39:07.473Z,81.90
2022-12-12T05:41:37.238Z,82.19
2022-12-12T05:44:07.041Z,82.21
2022-12-12T05:46:37.142Z,82.08
2022-12-12T05:49:06.883Z,82.76
2022-12-12T05:51:36.632Z,82.97
2022-12-12T05:54:06.376Z,83.31
2022-12-12T05:56:36.432Z,82.76
2022-12-12T05:59:06.486Z,82.66
2022-12-12T06:01:36.295Z,82.59
2022-12-12T06:04:05.920Z,82.37
2022-12-12T06:06:35.422Z,82.31
2022-12-12T06:09:04.984Z,82.92
2022-12-12T06:11:34.806Z,82.80
2022-12-12T06:14:05.521Z,82.61
2022-12-12T06:16:36.650Z,83.28
2022-12-12T06:19:06.392Z,83.00
2022-12-12T06:21:35.876Z,82.20
2022-12-12T06:24:07.565Z,82.82
2022-12-12T06:26:37.613Z,82.61
2022-12-12T06:29:07.716Z,82.73
2022-12-12T06:31:37.875Z,82.38
2022-12-12T06:34:09.447Z,82.25
2022-12-12T06:36:39.426Z,82.35
2022-12-12T06:39:09.769Z,81.83
2022-12-12T06:41:39.811Z,81.31
2022-12-12T06:44:10.700Z,81.63
2022-12-12T06:46:40.733Z,81.71
2022-12-12T06:49:10.606Z,81.68
2022-12-12T06:51:45.086Z,81.85
2022-12-12T06:54:18.498Z,81.84
2022-12-12T06:56:48.924Z,82.43
2022-12-12T06:59:18.939Z,82.56
2022-12-12T07:01:48.759Z,82.43
2022-12-12T07:04:18.370Z,82.14
2022-12-12T07:06:48.122Z,82.46
2022-12-12T07:09:19.152Z,82.14
2022-12-12T07:11:48.945Z,82.17
2022-12-12T07:14:18.899Z,81.59
2022-12-12T07:16:48.958Z,81.45
2022-12-12T07:19:18.719Z,81.92
2022-12-12T07:21:48.452Z,81.59
2022-12-12T07:24:17.902Z,81.70
2022-12-12T07:26:47.650Z,81.61
2022-12-12T07:29:18.229Z,81.15
2022-12-12T07:31:47.987Z,82.01
2022-12-12T07:34:17.971Z,81.70
2022-12-12T07:36:48.028Z,82.06
2022-12-12T07:39:20.990Z,81.90
2022-12-12T07:41:49.509Z,82.23
2022-12-12T07:44:20.973Z,82.05
2022-12-12T07:46:51.085Z,81.64
2022-12-12T07:49:20.781Z,81.56
2022-12-12T07:51:50.536Z,81.80
2022-12-12T07:54:20.425Z,81.53
2022-12-12T07:56:49.880Z,82.13
2022-12-12T07:59:19.705Z,81.86
2022-12-12T08:01:49.225Z,81.85
2022-12-12T08:04:19.105Z,82.62
2022-12-12T08:06:52.680Z,81.88
2022-12-12T08:09:20.260Z,82.12
2022-12-12T08:11:50.075Z,81.68
2022-12-12T08:14:19.536Z,81.54
2022-12-12T08:16:49.270Z,82.18
2022-12-12T08:19:19.571Z,82.17
2022-12-12T08:21:49.315Z,81.44
2022-12-12T08:24:19.365Z,81.24
2022-12-12T08:26:52.000Z,80.96
2022-12-12T08:29:21.897Z,81.39
2022-12-12T08:31:51.644Z,80.82
2022-12-12T08:34:21.206Z,81.02
2022-12-12T08:36:52.425Z,80.73
2022-12-12T08:39:22.622Z,80.08
2022-12-12T08:41:52.538Z,80.34
2022-12-12T08:44:22.600Z,80.19
2022-12-12T08:46:52.402Z,79.81
2022-12-12T08:49:22.297Z,79.56
2022-12-12T08:51:52.133Z,80.04
2022-12-12T08:54:21.878Z,79.38
2022-12-12T08:56:51.687Z,79.11
2022-12-12T08:59:21.135Z,78.73
2022-12-12T09:01:51.377Z,78.52
2022-12-12T09:04:21.100Z,78.48
2022-12-12T09:06:50.902Z,77.99
2022-12-12T09:09:20.938Z,77.25
2022-12-12T09:11:50.689Z,77.25
2022-12-12T09:14:20.256Z,77.31
2022-12-12T09:16:50.077Z,77.34
2022-12-12T09:19:20.112Z,77.46
2022-12-12T09:21:49.869Z,76.25
2022-12-12T09:24:19.581Z,76.25
2022-12-12T09:26:49.321Z,76.36
2022-12-12T09:29:19.136Z,75.78
2022-12-12T09:31:48.974Z,75.75
2022-12-12T09:34:18.393Z,75.08
2022-12-12T09:36:48.142Z,75.13
2022-12-12T09:39:17.895Z,75.42
2022-12-12T09:41:47.637Z,74.68
2022-12-12T09:44:20.208Z,74.50
2022-12-12T09:46:53.748Z,74.72
2022-12-12T09:49:31.998Z,74.19
2022-12-12T09:52:03.680Z,73.60
2022-12-12T09:54:33.563Z,74.13
2022-12-12T09:57:21.997Z,74.28
2022-12-12T10:00:00.831Z,74.71
2022-12-12T10:02:51.357Z,73.11
2022-12-12T10:05:24.905Z,73.02
2022-12-12T10:08:23.238Z,72.15
2022-12-12T10:10:58.867Z,72.15
2022-12-12T10:13:30.421Z,72.55
2022-12-12T10:16:05.771Z,73.24
2022-12-12T10:18:44.561Z,71.23
2022-12-12T10:21:17.358Z,71.80
2022-12-12T10:23:53.505Z,71.70
2022-12-12T10:26:26.251Z,71.56
2022-12-12T10:28:59.021Z,72.04
2022-12-12T10:31:31.901Z,70.47
2022-12-12T10:37:03.822Z,70.49
2022-12-12T10:39:45.241Z,70.45
2022-12-12T10:42:20.545Z,69.04
2022-12-12T10:44:55.578Z,70.03
2022-12-12T10:47:25.187Z,68.84
2022-12-12T10:50:13.729Z,69.69
2022-12-12T10:52:43.551Z,69.04
2022-12-12T10:55:22.979Z,70.49
2022-12-12T10:58:04.060Z,71.63
2022-12-12T11:00:36.588Z,69.73
2022-12-12T11:03:24.709Z,70.21
2022-12-12T11:05:56.116Z,69.95
2022-12-12T11:08:33.273Z,70.02
2022-12-12T11:11:24.515Z,70.63
2022-12-12T11:14:00.322Z,70.81
2022-12-12T11:16:33.322Z,69.85
2022-12-12T11:19:20.061Z,69.94
2022-12-12T11:21:49.339Z,70.78
2022-12-12T11:24:24.807Z,68.09
2022-12-12T11:27:00.782Z,69.47
2022-12-12T11:29:48.027Z,67.58
2022-12-12T11:32:23.767Z,67.92
2022-12-12T11:34:56.545Z,66.46
2022-12-12T11:37:29.601Z,66.94
2022-12-12T11:39:59.345Z,65.68
2022-12-12T11:42:34.891Z,67.19
2022-12-12T11:45:13.173Z,68.19
2022-12-12T11:47:46.053Z,69.19
2022-12-12T11:50:29.199Z,68.30
2022-12-12T11:53:02.119Z,67.42
2022-12-12T11:55:46.567Z,67.21
2022-12-12T11:58:24.904Z,65.40
2022-12-12T12:01:15.735Z,66.75
2022-12-12T12:03:57.011Z,64.79
2022-12-12T12:06:35.375Z,64.79
2022-12-12T12:09:20.307Z,65.50
2022-12-12T12:12:05.102Z,65.13
2022-12-12T12:14:40.705Z,65.19
2022-12-12T12:17:15.687Z,64.64
2022-12-12T12:19:48.497Z,65.75
2022-12-12T12:22:41.793Z,62.86
2022-12-12T12:25:17.148Z,60.58
2022-12-12T12:28:20.732Z,59.49
2022-12-12T12:30:59.629Z,59.54
2022-12-12T12:33:44.142Z,60.94
2022-12-12T12:36:21.075Z,58.79
2022-12-12T12:39:07.177Z,58.87
2022-12-12T12:42:04.323Z,58.08
2022-12-12T12:44:55.040Z,57.77
2022-12-12T12:47:33.470Z,59.63
2022-12-12T12:50:20.317Z,59.37
2022-12-12T12:53:11.727Z,61.54
2022-12-12T12:55:47.157Z,62.52
2022-12-12T12:58:25.395Z,63.82
2022-12-12T13:00:58.213Z,59.45
2022-12-12T13:03:31.057Z,59.31
2022-12-12T13:06:04.102Z,60.74
2022-12-12T13:08:39.908Z,61.45
2022-12-12T13:11:18.306Z,60.38
2022-12-12T13:13:49.972Z,62.88
2022-12-12T13:16:25.995Z,60.14
2022-12-12T13:19:07.577Z,59.43
2022-12-12T13:21:54.894Z,57.37
2022-12-12T13:24:59.799Z,55.64
2022-12-12T13:27:36.546Z,58.97
2022-12-12T13:30:17.008Z,56.13
2022-12-12T13:33:06.275Z,55.12
2022-12-12T13:35:43.466Z,55.00
2022-12-12T13:38:21.769Z,55.64
2022-12-12T13:41:09.022Z,56.24
2022-12-12T13:43:44.741Z,58.59
2022-12-12T13:46:21.030Z,58.60
2022-12-12T13:49:02.659Z,58.53
2022-12-12T13:51:34.777Z,58.83
2022-12-12T13:57:02.677Z,58.55
2022-12-12T13:59:32.846Z,62.50
2022-12-12T14:02:21.279Z,59.98
2022-12-12T14:05:10.483Z,59.68
2022-12-12T14:07:42.403Z,59.21
2022-12-12T14:10:18.848Z,61.14
2022-12-12T14:12:48.758Z,61.26
2022-12-12T14:15:33.704Z,60.16
2022-12-12T14:18:04.894Z,59.82
2022-12-12T14:20:38.931Z,60.71
2022-12-12T14:23:11.714Z,60.68
2022-12-12T14:25:42.782Z,60.87
2022-12-12T14:28:21.024Z,61.97
2022-12-12T14:31:05.723Z,61.97
2022-12-12T14:33:47.401Z,61.81
2022-12-12T14:36:40.778Z,61.63
2022-12-12T14:39:21.892Z,62.11
2022-12-12T14:41:53.268Z,63.32
2022-12-12T14:44:34.890Z,62.67
2022-12-12T14:47:04.853Z,63.51
2022-12-12T14:49:34.612Z,62.65
2022-12-12T14:52:06.486Z,62.26
2022-12-12T14:54:37.756Z,63.56
2022-12-12T14:57:08.422Z,63.56
2022-12-12T14:59:42.271Z,63.07
2022-12-12T15:02:25.879Z,63.54
2022-12-12T15:05:04.348Z,64.25
2022-12-12T15:07:33.353Z,64.40
2022-12-12T15:10:03.466Z,64.60
2022-12-12T15:12:36.415Z,65.29
2022-12-12T15:15:09.379Z,66.11
2022-12-12T15:17:50.399Z,66.11
2022-12-12T15:20:25.846Z,66.73
2022-12-12T15:23:01.813Z,66.86
2022-12-12T15:25:37.132Z,67.28
2022-12-12T15:28:14.902Z,67.22
2022-12-12T15:30:45.785Z,67.48
2022-12-12T15:33:21.826Z,67.54
2022-12-12T15:35:59.515Z,67.82
2022-12-12T15:38:25.594Z,70.08
2022-12-12T15:40:57.805Z,69.34
2022-12-12T15:43:29.884Z,70.58
2022-12-12T15:46:04.100Z,70.99
2022-12-12T15:48:33.996Z,71.91
2022-12-12T15:51:06.798Z,72.74
2022-12-12T15:53:39.512Z,71.96
2022-12-12T15:56:16.155Z,71.86
2022-12-12T15:58:48.527Z,74.44
2022-12-12T16:01:22.494Z,75.06
2022-12-12T16:04:06.280Z,73.99
2022-12-12T16:06:47.019Z,74.24
2022-12-12T16:09:21.972Z,74.24
2022-12-12T16:11:55.036Z,72.90
2022-12-12T16:14:41.370Z,72.83
2022-12-12T16:17:13.314Z,74.44
2022-12-12T16:19:46.363Z,74.68
2022-12-12T16:22:40.918Z,75.34
2022-12-12T16:25:28.449Z,75.10
2022-12-12T16:28:12.966Z,75.03
2022-12-12T16:30:44.143Z,74.58
2022-12-12T16:33:34.213Z,74.13
2022-12-12T16:36:09.439Z,73.80
2022-12-12T16:38:40.233Z,74.76
2022-12-12T16:41:15.699Z,73.75
2022-12-12T16:43:44.874Z,73.13
2022-12-12T16:46:23.364Z,72.73
2022-12-12T16:48:53.910Z,73.82
2022-12-12T16:51:27.959Z,74.93
2022-12-12T16:53:57.876Z,74.69
2022-12-12T16:56:27.667Z,74.66
2022-12-12T16:58:57.490Z,74.95
2022-12-12T17:01:27.350Z,74.64
2022-12-12T17:03:57.795Z,74.53
2022-12-12T17:06:27.546Z,74.16
2022-12-12T17:08:57.279Z,74.73
2022-12-12T17:11:27.440Z,73.92
2022-12-12T17:13:57.177Z,75.18
2022-12-12T17:16:28.064Z,75.18
2022-12-12T17:18:58.416Z,75.67
2022-12-12T17:21:28.158Z,76.15
2022-12-12T17:23:57.917Z,76.30
2022-12-12T17:26:27.668Z,76.24
2022-12-12T17:28:57.463Z,76.30
2022-12-12T17:31:27.355Z,77.22
2022-12-12T17:33:57.102Z,77.39
2022-12-12T17:36:26.563Z,77.15
2022-12-12T17:38:56.448Z,77.71
2022-12-12T17:41:26.266Z,77.84
2022-12-12T17:43:56.932Z,77.83
2022-12-12T17:46:28.095Z,77.51
2022-12-12T17:49:01.196Z,77.66
2022-12-12T17:51:30.967Z,76.83
2022-12-12T17:54:00.734Z,77.54
2022-12-12T17:56:30.795Z,77.44
2022-12-12T17:59:02.483Z,77.17
2022-12-12T18:01:32.761Z,77.65
2022-12-12T18:04:03.588Z,77.62
2022-12-12T18:06:35.880Z,77.28
2022-12-12T18:09:06.068Z,76.96
2022-12-12T18:11:38.147Z,77.44
2022-12-12T18:14:12.859Z,77.67
2022-12-12T18:16:44.811Z,77.84
2022-12-12T18:19:14.867Z,77.40
2022-12-12T18:22:02.060Z,77.55
2022-12-12T18:24:18.965Z,77.21
2022-12-12T18:26:54.274Z,77.86
2022-12-12T18:29:24.650Z,77.56
2022-12-12T18:31:54.752Z,77.65
2022-12-12T18:34:25.393Z,77.04
2022-12-12T18:36:55.133Z,77.20
2022-12-12T18:39:25.962Z,77.20
2022-12-12T18:41:56.038Z,77.23
2022-12-12T18:44:25.857Z,77.12
2022-12-12T18:46:55.685Z,77.56
2022-12-12T18:49:25.440Z,78.04
2022-12-12T18:51:55.441Z,78.33
2022-12-12T18:54:25.196Z,77.94
2022-12-12T18:56:54.927Z,78.42
2022-12-12T18:59:24.729Z,78.56
2022-12-12T19:01:54.563Z,78.52
2022-12-12T19:04:25.263Z,77.89
2022-12-12T19:06:55.285Z,78.35
2022-12-12T19:09:25.022Z,77.97
2022-12-12T19:12:01.968Z,77.77
2022-12-12T19:14:35.666Z,77.92
2022-12-12T19:16:58.036Z,77.01
2022-12-12T19:19:27.799Z,77.36
2022-12-12T19:21:57.540Z,78.07
2022-12-12T19:24:28.098Z,77.88
2022-12-12T19:26:57.824Z,78.02
2022-12-12T19:29:27.881Z,77.29
2022-12-12T19:31:58.774Z,78.16
2022-12-12T19:34:28.545Z,78.34
2022-12-12T19:36:58.350Z,77.84
2022-12-12T19:39:28.137Z,77.89
2022-12-12T19:41:57.881Z,77.98
2022-12-12T19:44:27.556Z,78.08
2022-12-12T19:46:57.265Z,77.46
2022-12-12T19:49:27.293Z,77.33
2022-12-12T19:51:57.048Z,77.20
2022-12-12T19:54:26.949Z,77.48
2022-12-12T19:56:56.681Z,78.71
2022-12-12T19:59:26.310Z,78.74
2022-12-12T20:01:56.691Z,78.08
2022-12-12T20:04:27.140Z,78.12
2022-12-12T20:06:57.210Z,78.30
2022-12-12T20:09:29.934Z,78.06
2022-12-12T20:12:00.969Z,78.06
2022-12-12T20:14:33.969Z,77.97
2022-12-12T20:17:04.452Z,77.25
2022-12-12T20:19:34.271Z,77.62
2022-12-12T20:22:06.559Z,77.74
2022-12-12T20:24:37.787Z,78.22
2022-12-12T20:27:08.898Z,79.15
2022-12-12T20:29:38.911Z,79.02
2022-12-12T20:32:11.124Z,79.02
2022-12-12T20:34:40.858Z,78.62
2022-12-12T20:37:13.063Z,78.67
2022-12-12T20:39:42.117Z,78.73
2022-12-12T20:42:12.598Z,78.96
2022-12-12T20:44:42.654Z,78.72
2022-12-12T20:47:14.059Z,78.72
2022-12-12T20:49:43.874Z,78.43
2022-12-12T20:52:13.501Z,79.08
2022-12-12T20:54:43.574Z,78.80
2022-12-12T20:57:13.386Z,78.74
2022-12-12T20:59:43.119Z,78.00
2022-12-12T21:02:12.936Z,77.54
2022-12-12T21:04:42.733Z,78.74
2022-12-12T21:07:12.479Z,78.88
2022-12-12T21:09:42.206Z,78.73
2022-12-12T21:12:11.957Z,78.73
2022-12-12T21:14:41.696Z,78.42
2022-12-12T21:17:12.201Z,78.05
2022-12-12T21:19:42.084Z,78.04
2022-12-12T21:22:11.678Z,77.77
2022-12-12T21:24:41.486Z,77.99
2022-12-12T21:27:11.238Z,78.11
2022-12-12T21:29:41.037Z,78.14
2022-12-12T21:32:11.717Z,78.28
2022-12-12T21:34:41.452Z,78.38
2022-12-12T21:37:12.261Z,78.44
2022-12-12T21:39:42.193Z,78.18
2022-12-12T21:42:13.529Z,77.67
2022-12-12T21:44:45.792Z,77.92
2022-12-12T21:47:15.475Z,78.19
2022-12-12T21:49:45.224Z,77.99
2022-12-12T21:52:15.234Z,77.75
2022-12-12T21:54:44.977Z,78.13
2022-12-12T21:57:14.799Z,78.34
2022-12-12T21:59:44.537Z,78.33
2022-12-12T22:02:14.289Z,78.04
2022-12-12T22:04:44.036Z,77.92
2022-12-12T22:07:13.808Z,77.94
2022-12-12T22:09:44.477Z,78.15
2022-12-12T22:12:18.543Z,78.17
2022-12-12T22:14:47.046Z,77.43
2022-12-12T22:17:16.800Z,77.22
2022-12-12T22:19:46.544Z,78.05
2022-12-12T22:22:16.323Z,78.09
2022-12-12T22:24:46.058Z,78.23
2022-12-12T22:27:15.811Z,77.89
2022-12-12T22:29:45.274Z,77.36
2022-12-12T22:32:15.029Z,77.45
2022-12-12T22:34:46.811Z,78.15
2022-12-12T22:37:16.570Z,78.08
2022-12-12T22:39:46.765Z,78.24
2022-12-12T22:42:16.203Z,78.28
2022-12-12T22:44:46.529Z,78.19
2022-12-12T22:47:16.264Z,78.04
2022-12-12T22:49:46.003Z,77.28
2022-12-12T22:52:15.459Z,76.65
2022-12-12T22:54:45.504Z,77.61
2022-12-12T22:57:16.688Z,78.25
2022-12-12T22:59:46.446Z,78.43
2022-12-12T23:02:21.523Z,78.13
2022-12-12T23:04:47.700Z,77.88
2022-12-12T23:07:17.576Z,77.98
2022-12-12T23:09:49.253Z,78.17
2022-12-12T23:12:22.778Z,78.28
2022-12-12T23:14:52.516Z,78.43
2022-12-12T23:17:22.255Z,77.50
2022-12-12T23:19:52.079Z,77.50
2022-12-12T23:22:21.807Z,77.38
2022-12-12T23:24:51.623Z,77.99
2022-12-12T23:27:21.500Z,77.63
2022-12-12T23:29:51.615Z,77.92
2022-12-12T23:32:21.283Z,78.18
2022-12-12T23:34:51.108Z,78.18
2022-12-12T23:37:21.576Z,78.18
2022-12-12T23:39:52.102Z,77.78
2022-12-12T23:42:21.532Z,77.35
2022-12-12T23:44:51.629Z,78.21
2022-12-12T23:47:21.348Z,78.12
2022-12-12T23:49:51.090Z,78.08
2022-12-12T23:52:20.539Z,77.75
2022-12-12T23:54:50.567Z,76.60
2022-12-12T23:57:20.676Z,77.53
2022-12-12T23:59:50.474Z,77.53
